Time;durP1;ratioP1;P1;durP2;ratioP2;P2;SDS_P1;SDS_P2;PMS_P1;PMS_P2;Temp;Humidity;BMP_temperature;BMP_pressure;BME280_temperature;BME280_humidity;BME280_pressure;Samples;Min_cycle;Max_cycle;Signal;HPM_P1;HPM_P2
2021/03/20 00:01:13;;;;;;;7.80;4.00;;;;;;;;;;13035835;22;20192;-77
2021/03/20 00:06:16;;;;;;;7.23;4.37;;;;;;;;;;13014277;22;20229;-76
2021/03/20 00:11:19;;;;;;;6.27;4.30;;;;;;;;;;13009749;22;20551;-77
2021/03/20 00:16:22;;;;;;;7.87;4.50;;;;;;;;;;13039446;22;20220;-77
2021/03/20 00:21:23;;;;;;;6.50;4.33;;;;;;;;;;13034272;22;20173;-77
2021/03/20 00:26:25;;;;;;;9.60;4.40;;;;;;;;;;13031809;22;20179;-77
2021/03/20 00:31:28;;;;;;;7.00;4.53;;;;;;;;;;13034415;22;20201;-78
2021/03/20 00:36:31;;;;;;;6.10;4.30;;;;;;;;;;13028481;22;20213;-78
2021/03/20 00:41:38;;;;;;;7.97;4.67;;;;;;;;;;13031286;22;20185;-77
2021/03/20 00:46:40;;;;;;;7.47;4.27;;;;;;;;;;13035836;22;20181;-77
2021/03/20 00:51:43;;;;;;;7.77;4.30;;;;;;;;;;13011232;22;20205;-77
2021/03/20 00:56:44;;;;;;;9.07;5.73;;;;;;;;;;13029747;22;20529;-77
2021/03/20 01:01:47;;;;;;;8.00;4.87;;;;;;;;;;13034526;22;20197;-78
2021/03/20 01:06:49;;;;;;;5.70;4.13;;;;;;;;;;13031297;22;20174;-77
2021/03/20 01:11:59;;;;;;;6.77;4.33;;;;;;;;;;13031513;22;20606;-77
2021/03/20 01:17:02;;;;;;;6.40;4.50;;;;;;;;;;13011893;22;20253;-77
2021/03/20 01:22:04;;;;;;;7.60;4.87;;;;;;;;;;13032086;22;20188;-77
2021/03/20 01:27:06;;;;;;;7.47;4.40;;;;;;;;;;13009955;22;20181;-77
2021/03/20 01:32:09;;;;;;;8.27;4.63;;;;;;;;;;13013049;22;20692;-77
2021/03/20 01:37:11;;;;;;;7.27;4.77;;;;;;;;;;13029492;22;20185;-77
2021/03/20 01:42:23;;;;;;;7.87;4.60;;;;;;;;;;13027065;22;20249;-78
2021/03/20 01:47:25;;;;;;;7.07;4.40;;;;;;;;;;13034901;22;20287;-77
2021/03/20 01:52:29;;;;;;;5.83;4.47;;;;;;;;;;13008273;22;20201;-77
2021/03/20 01:57:34;;;;;;;8.63;4.80;;;;;;;;;;13035578;22;20193;-77
2021/03/20 02:02:37;;;;;;;7.67;4.90;;;;;;;;;;13034652;22;20193;-77
2021/03/20 02:07:40;;;;;;;8.30;4.67;;;;;;;;;;13027887;22;20254;-77
2021/03/20 02:12:48;;;;;;;7.50;4.70;;;;;;;;;;13036255;22;20206;-77
2021/03/20 02:17:52;;;;;;;7.60;5.07;;;;;;;;;;13015412;22;20180;-77
2021/03/20 02:23:12;;;;;;;5.40;4.17;;;;;;;;;;13035131;22;20374;-77
2021/03/20 02:28:26;;;;;;;6.00;4.30;;;;;;;;;;13034913;22;20178;-77
2021/03/20 02:33:41;;;;;;;9.13;6.03;;;;;;;;;;13009505;22;20181;-76
2021/03/20 02:38:45;;;;;;;7.17;4.80;;;;;;;;;;13034144;22;20643;-78
2021/03/20 02:43:51;;;;;;;5.90;4.60;;;;;;;;;;13016945;22;20256;-77
2021/03/20 02:48:57;;;;;;;7.63;4.73;;;;;;;;;;13035192;22;20521;-78
2021/03/20 02:54:01;;;;;;;5.93;4.50;;;;;;;;;;13034662;22;20177;-76
2021/03/20 02:59:06;;;;;;;9.23;5.03;;;;;;;;;;13007867;22;20174;-77
2021/03/20 03:04:11;;;;;;;5.93;4.70;;;;;;;;;;13024957;22;20200;-77
2021/03/20 03:09:15;;;;;;;6.60;4.50;;;;;;;;;;13031992;22;20201;-77
2021/03/20 03:14:21;;;;;;;6.23;4.90;;;;;;;;;;13037400;22;20232;-77
2021/03/20 03:19:26;;;;;;;8.20;4.73;;;;;;;;;;13034646;22;20173;-77
2021/03/20 03:24:28;;;;;;;6.87;5.10;;;;;;;;;;13036802;22;20158;-77
2021/03/20 03:29:33;;;;;;;6.43;4.60;;;;;;;;;;13019154;22;20312;-79
2021/03/20 03:34:39;;;;;;;6.87;4.90;;;;;;;;;;13018847;22;20185;-78
2021/03/20 03:39:45;;;;;;;6.30;4.80;;;;;;;;;;13036248;22;20188;-79
2021/03/20 03:44:47;;;;;;;6.40;5.03;;;;;;;;;;13035520;22;20166;-79
2021/03/20 03:49:53;;;;;;;9.50;5.13;;;;;;;;;;13038089;22;20236;-79
2021/03/20 03:54:55;;;;;;;7.20;5.03;;;;;;;;;;13032067;22;20169;-79
2021/03/20 04:00:04;;;;;;;7.17;5.20;;;;;;;;;;13037690;22;20658;-78
2021/03/20 04:05:09;;;;;;;7.80;4.80;;;;;;;;;;13032820;22;20194;-79
2021/03/20 04:10:17;;;;;;;6.33;4.90;;;;;;;;;;13034024;22;20276;-80
2021/03/20 04:15:26;;;;;;;6.50;5.03;;;;;;;;;;13036542;22;20166;-79
2021/03/20 04:20:35;;;;;;;8.50;4.70;;;;;;;;;;13032188;22;20162;-79
2021/03/20 04:25:40;;;;;;;7.00;4.90;;;;;;;;;;13031532;22;20174;-79
2021/03/20 04:30:45;;;;;;;6.87;5.03;;;;;;;;;;13035527;22;20205;-79
2021/03/20 04:35:49;;;;;;;6.47;5.00;;;;;;;;;;13033326;22;20400;-79
2021/03/20 04:40:53;;;;;;;10.27;5.47;;;;;;;;;;13032146;22;20189;-79
2021/03/20 04:45:56;;;;;;;9.30;5.23;;;;;;;;;;13035536;22;20615;-79
2021/03/20 04:51:00;;;;;;;13.90;6.63;;;;;;;;;;13032237;22;20259;-79
2021/03/20 04:56:04;;;;;;;11.47;6.60;;;;;;;;;;13010417;22;20181;-79
2021/03/20 05:01:09;;;;;;;13.17;6.00;;;;;;;;;;13036618;22;20184;-79
2021/03/20 05:06:14;;;;;;;8.03;5.53;;;;;;;;;;13026405;22;20524;-79
2021/03/20 05:11:20;;;;;;;8.27;5.53;;;;;;;;;;13032035;22;20669;-80
2021/03/20 05:16:27;;;;;;;8.27;5.23;;;;;;;;;;13035062;22;20356;-79
2021/03/20 05:21:32;;;;;;;8.30;5.33;;;;;;;;;;13031822;22;20653;-79
2021/03/20 05:26:35;;;;;;;7.70;5.30;;;;;;;;;;13013503;22;20180;-78
2021/03/20 05:31:37;;;;;;;8.03;5.70;;;;;;;;;;13032305;22;20201;-79
2021/03/20 05:36:40;;;;;;;10.00;5.57;;;;;;;;;;13015149;22;20252;-79
2021/03/20 05:41:48;;;;;;;8.27;5.53;;;;;;;;;;13028750;22;20174;-78
2021/03/20 05:46:52;;;;;;;9.47;5.70;;;;;;;;;;13039560;22;20176;-79
2021/03/20 05:52:04;;;;;;;10.20;5.40;;;;;;;;;;13036413;22;20254;-78
2021/03/20 05:57:08;;;;;;;8.80;5.60;;;;;;;;;;13040121;22;20172;-79
2021/03/20 06:02:28;;;;;;;8.63;5.30;;;;;;;;;;13005374;22;20696;-79
2021/03/20 06:07:46;;;;;;;7.97;5.70;;;;;;;;;;13034853;22;20177;-79
2021/03/20 06:12:52;;;;;;;7.73;5.50;;;;;;;;;;13037405;22;20705;-79
2021/03/20 06:18:12;;;;;;;7.40;5.20;;;;;;;;;;13040661;22;20180;-79
2021/03/20 06:23:29;;;;;;;8.97;5.50;;;;;;;;;;13032701;22;20192;-79
2021/03/20 06:28:33;;;;;;;6.57;4.97;;;;;;;;;;13039394;22;20169;-82
2021/03/20 06:33:39;;;;;;;8.07;5.43;;;;;;;;;;13034344;22;20213;-79
2021/03/20 06:38:44;;;;;;;9.20;5.40;;;;;;;;;;13024263;22;20252;-79
2021/03/20 06:43:49;;;;;;;9.57;5.30;;;;;;;;;;13035444;22;20261;-79
2021/03/20 06:48:51;;;;;;;7.07;4.90;;;;;;;;;;13037650;22;20173;-79
2021/03/20 06:53:57;;;;;;;7.43;5.13;;;;;;;;;;13034695;22;20170;-77
2021/03/20 06:58:59;;;;;;;7.60;5.40;;;;;;;;;;13037146;22;20165;-78
2021/03/20 07:04:15;;;;;;;7.30;5.33;;;;;;;;;;13018529;22;20201;-78
2021/03/20 07:09:19;;;;;;;8.47;5.50;;;;;;;;;;13033042;22;20189;-78
2021/03/20 07:14:35;;;;;;;7.00;5.50;;;;;;;;;;13039760;22;20631;-78
2021/03/20 07:19:51;;;;;;;6.60;5.00;;;;;;;;;;13037113;22;20196;-80
2021/03/20 07:24:54;;;;;;;9.23;5.43;;;;;;;;;;13018045;22;20254;-78
2021/03/20 07:29:57;;;;;;;9.37;5.63;;;;;;;;;;13035021;22;20209;-78
2021/03/20 07:35:14;;;;;;;7.23;5.97;;;;;;;;;;13017591;22;20189;-77
2021/03/20 07:40:30;;;;;;;9.57;5.83;;;;;;;;;;13030743;22;20216;-79
2021/03/20 07:45:31;;;;;;;7.37;5.23;;;;;;;;;;13031443;22;20266;-77
2021/03/20 07:50:37;;;;;;;8.47;5.83;;;;;;;;;;13034028;22;20210;-79
2021/03/20 07:56:03;;;;;;;7.50;5.70;;;;;;;;;;13029824;22;20166;-76
2021/03/20 08:01:06;;;;;;;8.93;5.83;;;;;;;;;;13036067;22;20177;-79
2021/03/20 08:06:15;;;;;;;9.00;5.93;;;;;;;;;;13031327;22;20288;-80
2021/03/20 08:11:28;;;;;;;12.60;6.50;;;;;;;;;;13032352;22;20193;-80
2021/03/20 08:16:31;;;;;;;9.33;6.13;;;;;;;;;;13031348;22;20192;-81
2021/03/20 08:21:44;;;;;;;9.90;6.00;;;;;;;;;;13014711;22;20227;-81
2021/03/20 08:26:52;;;;;;;10.90;6.43;;;;;;;;;;13031464;22;20223;-79
2021/03/20 08:32:00;;;;;;;9.80;6.83;;;;;;;;;;13016663;22;20244;-78
2021/03/20 08:37:12;;;;;;;12.67;5.83;;;;;;;;;;13025503;22;20196;-78
2021/03/20 08:42:22;;;;;;;10.47;6.50;;;;;;;;;;13036859;22;20166;-80
2021/03/20 08:47:52;;;;;;;10.07;6.50;;;;;;;;;;13033317;22;20172;-82
2021/03/20 08:53:06;;;;;;;9.63;6.53;;;;;;;;;;13030647;22;20203;-93
2021/03/20 08:58:14;;;;;;;8.73;6.27;;;;;;;;;;13033562;22;20295;-79
2021/03/20 09:03:20;;;;;;;8.87;5.80;;;;;;;;;;13026402;22;20197;-77
2021/03/20 09:08:27;;;;;;;9.53;6.40;;;;;;;;;;13006645;22;21034;-77
2021/03/20 09:13:32;;;;;;;11.10;6.23;;;;;;;;;;13034255;22;20217;-77
2021/03/20 09:18:34;;;;;;;6.93;5.30;;;;;;;;;;13028363;22;20681;-81
2021/03/20 09:23:38;;;;;;;6.87;5.50;;;;;;;;;;13031303;22;20166;-79
2021/03/20 09:28:59;;;;;;;7.77;5.43;;;;;;;;;;13023066;22;20646;-78
2021/03/20 09:34:19;;;;;;;7.33;4.93;;;;;;;;;;12989167;22;20205;-78
2021/03/20 09:39:38;;;;;;;5.90;4.10;;;;;;;;;;13009885;22;20188;-79
2021/03/20 09:44:43;;;;;;;6.27;4.20;;;;;;;;;;13026628;22;20710;-80
2021/03/20 09:49:51;;;;;;;6.03;3.90;;;;;;;;;;13024827;22;20530;-78
2021/03/20 09:54:53;;;;;;;5.20;3.50;;;;;;;;;;13032501;22;20253;-79
2021/03/20 09:59:55;;;;;;;4.53;3.60;;;;;;;;;;13029345;22;20188;-79
2021/03/20 10:04:59;;;;;;;6.50;4.37;;;;;;;;;;13031813;22;20299;-80
2021/03/20 10:10:07;;;;;;;6.57;3.93;;;;;;;;;;13025848;22;20201;-79
2021/03/20 10:15:29;;;;;;;6.07;4.20;;;;;;;;;;13032453;22;20173;-79
2021/03/20 10:20:39;;;;;;;6.23;4.03;;;;;;;;;;13031956;22;20248;-81
2021/03/20 10:25:46;;;;;;;6.83;3.50;;;;;;;;;;13028774;22;20522;-80
2021/03/20 10:30:55;;;;;;;5.97;3.83;;;;;;;;;;13010629;22;20724;-79
2021/03/20 10:36:08;;;;;;;4.90;3.73;;;;;;;;;;13037441;22;20621;-79
2021/03/20 10:41:14;;;;;;;5.53;3.90;;;;;;;;;;13031249;22;20166;-79
2021/03/20 10:46:17;;;;;;;5.83;4.03;;;;;;;;;;13038658;22;20763;-78
2021/03/20 10:51:21;;;;;;;4.87;3.53;;;;;;;;;;13018926;22;20739;-79
2021/03/20 10:56:25;;;;;;;6.93;3.30;;;;;;;;;;13011867;22;20181;-80
2021/03/20 11:01:32;;;;;;;5.20;3.30;;;;;;;;;;13012235;22;20170;-79
2021/03/20 11:06:37;;;;;;;7.80;3.70;;;;;;;;;;13025752;22;20435;-78
2021/03/20 11:11:44;;;;;;;5.40;3.60;;;;;;;;;;13032078;22;20201;-79
2021/03/20 11:16:55;;;;;;;7.50;4.00;;;;;;;;;;13015306;22;20180;-79
2021/03/20 11:22:17;;;;;;;5.07;3.70;;;;;;;;;;13037296;22;20177;-79
2021/03/20 11:27:22;;;;;;;5.97;3.87;;;;;;;;;;13035119;22;20181;-80
2021/03/20 11:32:26;;;;;;;6.67;4.07;;;;;;;;;;13017932;22;20309;-80
2021/03/20 11:37:29;;;;;;;5.70;4.43;;;;;;;;;;13034531;22;20188;-79
2021/03/20 11:42:35;;;;;;;5.83;4.00;;;;;;;;;;13012148;22;20685;-79
2021/03/20 11:47:38;;;;;;;6.57;4.27;;;;;;;;;;13031260;22;20257;-78
2021/03/20 11:52:47;;;;;;;6.27;4.20;;;;;;;;;;13023041;22;20210;-77
2021/03/20 11:57:50;;;;;;;6.20;4.53;;;;;;;;;;13036317;22;20168;-78
2021/03/20 12:02:52;;;;;;;7.30;4.90;;;;;;;;;;13033080;22;20284;-80
2021/03/20 12:08:08;;;;;;;6.87;4.23;;;;;;;;;;13031321;22;20707;-80
2021/03/20 12:13:11;;;;;;;4.97;3.80;;;;;;;;;;13028235;22;20211;-80
2021/03/20 12:18:19;;;;;;;7.87;4.27;;;;;;;;;;13033598;22;20173;-80
2021/03/20 12:23:22;;;;;;;8.83;4.60;;;;;;;;;;13028830;22;20697;-80
2021/03/20 12:28:36;;;;;;;7.63;5.07;;;;;;;;;;13015784;22;20209;-80
2021/03/20 12:33:44;;;;;;;9.37;5.57;;;;;;;;;;13016478;22;20204;-77
2021/03/20 14:39:54;;;;;;;5.53;3.37;;;;;;;;;;13010215;22;20177;-82
2021/03/20 14:44:56;;;;;;;5.33;2.90;;;;;;;;;;13014794;22;20205;-77
2021/03/20 14:49:58;;;;;;;4.80;2.80;;;;;;;;;;13039374;22;20201;-77
2021/03/20 14:55:01;;;;;;;4.20;2.30;;;;;;;;;;13030750;22;20971;-77
2021/03/20 15:00:03;;;;;;;6.57;2.67;;;;;;;;;;13035664;22;20162;-76
2021/03/20 15:05:06;;;;;;;4.27;2.73;;;;;;;;;;13033922;22;20259;-78
2021/03/20 15:10:23;;;;;;;3.30;2.30;;;;;;;;;;13029683;22;20197;-79
2021/03/20 15:15:25;;;;;;;4.80;2.37;;;;;;;;;;13031084;22;20623;-78
2021/03/20 15:20:29;;;;;;;3.37;2.30;;;;;;;;;;13032806;22;20705;-79
2021/03/20 15:25:48;;;;;;;3.47;2.10;;;;;;;;;;13028321;22;20578;-78
2021/03/20 15:30:51;;;;;;;5.40;2.50;;;;;;;;;;13034636;22;20216;-78
2021/03/20 15:35:57;;;;;;;4.53;2.33;;;;;;;;;;13032243;22;20177;-78
2021/03/20 15:41:01;;;;;;;5.13;2.97;;;;;;;;;;13029914;22;20581;-78
2021/03/20 15:46:04;;;;;;;3.63;2.50;;;;;;;;;;13011065;22;20525;-79
2021/03/20 15:51:07;;;;;;;3.50;2.30;;;;;;;;;;13026447;22;20651;-78
2021/03/20 15:56:10;;;;;;;5.03;2.50;;;;;;;;;;13005616;22;20174;-78
2021/03/20 16:01:13;;;;;;;5.03;2.50;;;;;;;;;;13031319;22;20601;-77
2021/03/20 16:06:16;;;;;;;2.70;2.30;;;;;;;;;;13031880;22;20755;-77
2021/03/20 16:11:19;;;;;;;3.10;2.30;;;;;;;;;;13024897;22;20205;-78
2021/03/20 16:16:22;;;;;;;4.30;2.20;;;;;;;;;;13005856;22;20599;-78
2021/03/20 16:21:24;;;;;;;3.50;2.03;;;;;;;;;;13026635;22;20489;-76
2021/03/20 16:26:27;;;;;;;3.40;2.23;;;;;;;;;;13010973;22;20487;-76
2021/03/20 16:31:29;;;;;;;3.53;2.80;;;;;;;;;;13011442;22;20576;-77
2021/03/20 16:36:32;;;;;;;3.27;2.07;;;;;;;;;;13012159;22;20231;-78
2021/03/20 16:41:35;;;;;;;3.67;2.20;;;;;;;;;;13032282;22;20635;-78
2021/03/20 16:46:37;;;;;;;3.73;2.00;;;;;;;;;;13030944;22;20180;-85
2021/03/20 16:51:39;;;;;;;4.87;2.17;;;;;;;;;;13034267;22;20193;-79
2021/03/20 16:56:42;;;;;;;5.93;2.33;;;;;;;;;;13029603;22;20444;-78
2021/03/20 17:01:44;;;;;;;2.50;2.00;;;;;;;;;;13036490;22;20306;-79
2021/03/20 17:06:46;;;;;;;3.33;2.30;;;;;;;;;;13012884;22;20189;-76
2021/03/20 17:11:53;;;;;;;2.30;2.07;;;;;;;;;;13031428;22;20247;-78
2021/03/20 17:16:56;;;;;;;4.13;2.60;;;;;;;;;;13033448;22;20176;-78
2021/03/20 17:21:58;;;;;;;4.17;2.13;;;;;;;;;;13035520;22;20649;-77
2021/03/20 17:27:01;;;;;;;4.50;2.30;;;;;;;;;;13029633;22;20710;-78
2021/03/20 17:32:03;;;;;;;5.33;2.40;;;;;;;;;;13030650;22;20546;-79
2021/03/20 17:37:05;;;;;;;4.30;2.23;;;;;;;;;;13028712;22;20177;-78
2021/03/20 17:42:09;;;;;;;3.53;2.27;;;;;;;;;;13030703;22;20616;-78
2021/03/20 17:47:11;;;;;;;5.40;2.63;;;;;;;;;;13032806;22;20216;-79
2021/03/20 17:52:13;;;;;;;2.70;2.13;;;;;;;;;;13029794;22;20519;-78
2021/03/20 17:57:16;;;;;;;5.93;2.83;;;;;;;;;;13035159;22;20173;-77
2021/03/20 18:02:19;;;;;;;4.37;2.80;;;;;;;;;;13029724;22;20541;-76
2021/03/20 18:07:22;;;;;;;4.03;2.67;;;;;;;;;;13027582;22;20590;-77
2021/03/20 18:12:25;;;;;;;6.40;3.90;;;;;;;;;;13024057;22;20208;-78
2021/03/20 18:17:27;;;;;;;5.03;3.00;;;;;;;;;;13019385;22;20174;-78
2021/03/20 18:22:29;;;;;;;4.50;2.80;;;;;;;;;;13020933;22;20650;-79
2021/03/20 18:27:32;;;;;;;5.77;3.00;;;;;;;;;;13020697;22;20173;-78
2021/03/20 18:32:34;;;;;;;6.67;3.37;;;;;;;;;;13025349;22;20205;-80
2021/03/20 18:37:36;;;;;;;3.87;2.70;;;;;;;;;;13019854;22;20205;-80
2021/03/20 18:42:39;;;;;;;4.57;3.00;;;;;;;;;;13003870;22;20209;-78
2021/03/20 18:47:41;;;;;;;3.67;2.93;;;;;;;;;;13001558;22;20185;-78
2021/03/20 18:52:44;;;;;;;4.47;3.13;;;;;;;;;;13010671;22;20705;-78
2021/03/20 18:57:47;;;;;;;4.33;3.33;;;;;;;;;;13022513;22;20170;-78
2021/03/20 19:02:49;;;;;;;5.30;3.50;;;;;;;;;;13029666;22;20193;-78
2021/03/20 19:07:52;;;;;;;6.40;3.63;;;;;;;;;;13025365;22;20174;-79
2021/03/20 19:12:55;;;;;;;6.37;4.07;;;;;;;;;;13029307;22;20209;-78
2021/03/20 19:17:58;;;;;;;7.30;4.30;;;;;;;;;;13029741;22;20461;-78
2021/03/20 19:23:00;;;;;;;7.93;4.40;;;;;;;;;;13021125;22;20353;-78
2021/03/20 19:28:05;;;;;;;9.10;4.37;;;;;;;;;;13007427;22;20181;-77
2021/03/20 19:33:07;;;;;;;6.53;4.50;;;;;;;;;;13017723;22;20228;-77
2021/03/20 19:38:09;;;;;;;6.83;4.07;;;;;;;;;;12996672;22;20447;-77
2021/03/20 19:43:12;;;;;;;6.63;4.40;;;;;;;;;;13022282;22;20186;-77
2021/03/20 19:48:16;;;;;;;7.83;4.50;;;;;;;;;;13023255;22;20166;-77
2021/03/20 19:53:19;;;;;;;8.50;4.70;;;;;;;;;;13020214;22;20217;-77
2021/03/20 19:58:25;;;;;;;8.77;5.10;;;;;;;;;;13028564;22;20200;-77
2021/03/20 20:03:27;;;;;;;5.10;3.90;;;;;;;;;;13015781;22;20201;-78
2021/03/20 20:08:29;;;;;;;5.40;3.40;;;;;;;;;;13026418;22;20252;-77
2021/03/20 20:13:32;;;;;;;4.67;2.90;;;;;;;;;;13021505;22;20201;-79
2021/03/20 20:18:39;;;;;;;3.63;2.73;;;;;;;;;;13028420;22;20692;-78
2021/03/20 20:23:41;;;;;;;5.73;3.23;;;;;;;;;;13016830;22;20170;-78
2021/03/20 20:28:44;;;;;;;3.77;2.57;;;;;;;;;;13008227;22;20920;-76
2021/03/20 20:33:46;;;;;;;5.40;2.80;;;;;;;;;;13024095;22;20778;-76
2021/03/20 20:38:48;;;;;;;4.10;2.50;;;;;;;;;;13023808;22;20177;-78
2021/03/20 20:43:51;;;;;;;3.10;2.10;;;;;;;;;;13006944;22;20189;-75
2021/03/20 20:48:53;;;;;;;5.27;2.47;;;;;;;;;;13024974;22;20182;-78
2021/03/20 20:53:56;;;;;;;3.40;1.90;;;;;;;;;;13022642;22;20366;-78
2021/03/20 20:58:58;;;;;;;8.60;4.03;;;;;;;;;;13023509;22;20182;-78
2021/03/20 21:04:01;;;;;;;3.40;2.07;;;;;;;;;;13026778;22;20208;-78
2021/03/20 21:09:03;;;;;;;3.70;2.20;;;;;;;;;;13003141;22;20174;-78
2021/03/20 21:14:05;;;;;;;4.97;3.13;;;;;;;;;;13000787;22;20681;-78
2021/03/20 21:19:07;;;;;;;3.00;2.30;;;;;;;;;;13006206;22;20209;-79
2021/03/20 21:24:09;;;;;;;5.07;2.70;;;;;;;;;;13029880;22;20181;-79
2021/03/20 21:29:12;;;;;;;3.47;2.20;;;;;;;;;;13037689;22;20180;-79
2021/03/20 21:34:14;;;;;;;4.67;2.00;;;;;;;;;;13035589;22;20197;-79
2021/03/20 21:39:19;;;;;;;3.37;2.00;;;;;;;;;;13030175;22;20178;-78
2021/03/20 21:44:21;;;;;;;2.33;1.60;;;;;;;;;;13035233;22;20244;-79
2021/03/20 21:49:23;;;;;;;3.17;1.67;;;;;;;;;;13011312;22;20228;-79
2021/03/20 21:54:26;;;;;;;3.03;2.03;;;;;;;;;;13007651;22;20540;-78
2021/03/20 21:59:29;;;;;;;4.47;2.67;;;;;;;;;;13009609;22;20627;-79
2021/03/20 22:04:31;;;;;;;5.20;3.00;;;;;;;;;;13032668;22;20204;-78
2021/03/20 22:09:33;;;;;;;3.73;2.43;;;;;;;;;;13008932;22;20177;-79
2021/03/20 22:14:35;;;;;;;3.33;2.10;;;;;;;;;;13034689;22;20465;-78
2021/03/20 22:19:37;;;;;;;4.57;1.90;;;;;;;;;;13010400;22;20264;-77
2021/03/20 22:24:39;;;;;;;4.63;1.90;;;;;;;;;;13011589;22;20178;-79
2021/03/20 22:29:41;;;;;;;2.10;1.90;;;;;;;;;;13033889;22;20173;-78
2021/03/20 22:34:44;;;;;;;3.83;2.40;;;;;;;;;;13038267;22;20518;-79
2021/03/20 22:39:45;;;;;;;3.30;1.90;;;;;;;;;;13034242;22;20192;-79
2021/03/20 22:44:48;;;;;;;1.87;1.30;;;;;;;;;;13038877;22;20201;-79
2021/03/20 22:49:50;;;;;;;1.90;1.50;;;;;;;;;;13036918;22;20288;-79
2021/03/20 22:54:52;;;;;;;2.63;1.40;;;;;;;;;;13011625;22;20209;-78
2021/03/20 22:59:55;;;;;;;1.30;1.20;;;;;;;;;;13017313;22;20174;-79
2021/03/20 23:04:57;;;;;;;2.87;1.53;;;;;;;;;;13034550;22;20206;-78
2021/03/20 23:09:59;;;;;;;3.63;1.63;;;;;;;;;;13033212;22;20622;-79
2021/03/20 23:15:01;;;;;;;2.23;1.43;;;;;;;;;;13035761;22;20396;-78
2021/03/20 23:20:04;;;;;;;3.07;1.63;;;;;;;;;;13037410;22;20197;-79
2021/03/20 23:25:07;;;;;;;2.33;1.60;;;;;;;;;;13035055;22;20204;-78
2021/03/20 23:30:12;;;;;;;3.30;1.80;;;;;;;;;;13038056;22;20202;-78
2021/03/20 23:35:14;;;;;;;2.80;1.90;;;;;;;;;;13036587;22;20285;-79
2021/03/20 23:40:17;;;;;;;2.27;1.60;;;;;;;;;;13034164;22;20181;-78
2021/03/20 23:45:21;;;;;;;2.10;1.60;;;;;;;;;;13014293;22;20174;-80
2021/03/20 23:50:25;;;;;;;2.83;1.60;;;;;;;;;;13036961;22;20615;-79
2021/03/20 23:55:28;;;;;;;3.97;1.90;;;;;;;;;;13032477;22;20229;-80
